This is the latest recevied weather packets stored in our database for station/object BMCB-9. If no packets are shown the sender has not sent any weather packets the latest 10 day(s).
| Time | Temp. | Humidity | Pressure | Rain* | Wind** | Luminosity | Snow |
|---|---|---|---|---|---|---|---|
| 1777347656 | 8.33° C | 68% | 1019.6 hPa | 0 mm | - | 0 W/m² | - |
| 1777338657 | 7.22° C | 83% | 1020.2 hPa | 0 mm | - | 0 W/m² | - |
| 1777337456 | 6.67° C | 82% | 1020.1 hPa | 0 mm | - | 0 W/m² | - |
| 1777330858 | 6.67° C | 80% | 1020.3 hPa | 0 mm | - | 0 W/m² | - |
| 1777329058 | 6.67° C | 79% | 1020.3 hPa | 0 mm | - | 0 W/m² | - |
| 1777328458 | 6.67° C | 79% | 1020.3 hPa | 0 mm | - | 0 W/m² | - |
| 1777324859 | 8.33° C | 75% | 1020 hPa | 0 mm | - | 0 W/m² | - |
| 1777314057 | 17.78° C | 32% | 1019.6 hPa | 0 mm | - | 20 W/m² | - |
| 1777312258 | 17.78° C | 29% | 1019.6 hPa | 0 mm | - | 46 W/m² | - |
| 1777305660 | 19.44° C | 27% | 1020 hPa | 0 mm | - | 142 W/m² | - |
| 1777305059 | 19.44° C | 28% | 1020 hPa | 0 mm | - | 134 W/m² | - |
| 1777302058 | 20° C | 28% | 1020.4 hPa | 0 mm | - | 248 W/m² | - |
| 1777291258 | 17.78° C | 36% | 1022.2 hPa | 0 mm | - | 292 W/m² | - |
| 1777287658 | 16.11° C | 41% | 1022.7 hPa | 0 mm | - | 170 W/m² | - |
| 1777287057 | 16.11° C | 43% | 1022.7 hPa | 0 mm | - | 138 W/m² | - |
| 1777284057 | 15° C | 42% | 1023.3 hPa | 0 mm | - | 158 W/m² | - |
| 1777282257 | 14.44° C | 47% | 1023.4 hPa | 0 mm | - | 78 W/m² | - |
| 1777278657 | 11.67° C | 59% | 1023.8 hPa | 0 mm | - | 116 W/m² | - |
| 1777275656 | 9.44° C | 71% | 1023.8 hPa | 0 mm | - | 112 W/m² | - |
| 1777272655 | 6.11° C | 85% | 1024.1 hPa | 0 mm | - | 94 W/m² | - |
| 1777266056 | 2.22° C | 94% | 1023.9 hPa | 0 mm | - | 14 W/m² | - |
| 1777264259 | 1.67° C | 94% | 1023.6 hPa | 0 mm | - | 2 W/m² | - |
| 1777259456 | 2.78° C | 93% | 1023.6 hPa | 0 mm | - | 0 W/m² | - |
| 1777256455 | 2.78° C | 91% | 1023.6 hPa | 0 mm | - | 0 W/m² | - |
| 1777252258 | 3.89° C | 90% | 1024 hPa | 0 mm | - | 0 W/m² | - |
* Rain latest hour (hover to see other rain measurements)
** Current wind speed in m/s (hover to see current wind gust speed)